createdAt,value
2023-01-19T00:00:18.965Z,98725.25
2023-01-19T00:01:21.588Z,98724.38
2023-01-19T00:02:24.194Z,98733.31
2023-01-19T00:03:27.101Z,98725.91
2023-01-19T00:04:29.437Z,98735.94
2023-01-19T00:05:34.042Z,98730.16
2023-01-19T00:06:36.682Z,98723.31
2023-01-19T00:07:39.386Z,98718.56
2023-01-19T00:08:44.845Z,98718.81
2023-01-19T00:09:47.376Z,98721.88
2023-01-19T00:10:53.312Z,98717.28
2023-01-19T00:11:56.587Z,98723.25
2023-01-19T00:12:59.619Z,98720.63
2023-01-19T00:14:02.511Z,98720.09
2023-01-19T00:15:05.757Z,98724.44
2023-01-19T00:16:08.423Z,98728.34
2023-01-19T00:17:11.086Z,98723.91
2023-01-19T00:18:13.888Z,98720.72
2023-01-19T00:19:16.792Z,98720.41
2023-01-19T00:20:19.321Z,98715.28
2023-01-19T00:21:22.502Z,98724.72
2023-01-19T00:22:25.033Z,98718.72
2023-01-19T00:23:27.721Z,98713.16
2023-01-19T00:24:30.117Z,98719.81
2023-01-19T00:25:32.791Z,98719.44
2023-01-19T00:26:35.225Z,98718.66
2023-01-19T00:27:37.660Z,98716.38
2023-01-19T00:28:40.286Z,98712.31
2023-01-19T00:29:42.808Z,98714.81
2023-01-19T00:30:50.707Z,98713.50
2023-01-19T00:31:55.767Z,98717.31
2023-01-19T00:32:58.900Z,98715.47
2023-01-19T00:34:02.524Z,98700.00
2023-01-19T00:35:05.591Z,98705.31
2023-01-19T00:36:08.656Z,98705.09
2023-01-19T00:37:11.259Z,98694.22
2023-01-19T00:38:14.125Z,98687.56
2023-01-19T00:39:16.743Z,98689.63
2023-01-19T00:40:19.367Z,98697.84
2023-01-19T00:41:44.747Z,98679.16
2023-01-19T00:42:48.656Z,98681.78
2023-01-19T00:43:51.252Z,98685.13
2023-01-19T00:44:53.711Z,98682.59
2023-01-19T00:45:56.198Z,98684.91
2023-01-19T00:46:58.841Z,98676.88
2023-01-19T00:48:01.820Z,98667.56
2023-01-19T00:49:05.096Z,98679.75
2023-01-19T00:50:12.066Z,98677.38
2023-01-19T00:51:14.560Z,98681.59
2023-01-19T00:52:17.099Z,98678.44
2023-01-19T00:53:20.646Z,98674.06
2023-01-19T00:54:23.181Z,98679.75
2023-01-19T00:55:25.972Z,98675.25
2023-01-19T00:56:28.288Z,98658.25
2023-01-19T00:57:31.086Z,98657.06
2023-01-19T00:58:33.763Z,98652.16
2023-01-19T00:59:42.455Z,98650.13
2023-01-19T01:00:45.201Z,98644.81
2023-01-19T01:01:47.874Z,98648.44
2023-01-19T01:02:52.983Z,98646.84
2023-01-19T01:03:56.191Z,98646.06
2023-01-19T01:05:01.188Z,98639.81
2023-01-19T01:06:04.713Z,98636.97
2023-01-19T01:07:07.513Z,98637.31
2023-01-19T01:08:10.138Z,98641.78
2023-01-19T01:09:12.645Z,98633.59
2023-01-19T01:10:24.572Z,98634.69
2023-01-19T01:11:34.505Z,98628.00
2023-01-19T01:12:37.945Z,98627.31
2023-01-19T01:13:40.645Z,98637.91
2023-01-19T01:14:43.157Z,98644.31
2023-01-19T01:15:51.378Z,98640.75
2023-01-19T01:16:53.908Z,98639.94
2023-01-19T01:18:00.386Z,98636.72
2023-01-19T01:19:03.835Z,98646.09
2023-01-19T01:20:08.461Z,98647.59
2023-01-19T01:21:13.151Z,98647.50
2023-01-19T01:22:16.428Z,98644.56
2023-01-19T01:23:23.129Z,98649.69
2023-01-19T01:24:32.534Z,98642.38
2023-01-19T01:25:37.961Z,98638.47
2023-01-19T01:26:40.403Z,98639.59
2023-01-19T01:27:43.461Z,98639.84
2023-01-19T01:28:46.138Z,98651.31
2023-01-19T01:29:49.004Z,98657.66
2023-01-19T01:30:55.969Z,98662.66
2023-01-19T01:31:58.823Z,98643.63
2023-01-19T01:33:04.395Z,98633.34
2023-01-19T01:34:07.488Z,98623.19
2023-01-19T01:35:11.508Z,98617.91
2023-01-19T01:36:14.576Z,98613.06
2023-01-19T01:37:17.586Z,98608.91
2023-01-19T01:38:20.373Z,98607.50
2023-01-19T01:39:23.154Z,98605.50
2023-01-19T01:40:28.462Z,98596.53
2023-01-19T01:41:33.920Z,98592.00
2023-01-19T01:42:36.678Z,98593.16
2023-01-19T01:44:02.208Z,98584.53
2023-01-19T01:45:38.549Z,98579.47
2023-01-19T01:46:41.267Z,98576.69
2023-01-19T01:47:47.441Z,98581.53
2023-01-19T01:49:08.809Z,98567.47
2023-01-19T01:50:19.844Z,98563.00
2023-01-19T01:51:44.980Z,98553.31
2023-01-19T01:53:07.298Z,98546.53
2023-01-19T01:54:20.080Z,98559.19
2023-01-19T01:55:28.024Z,98552.81
2023-01-19T01:56:45.707Z,98560.72
2023-01-19T01:57:57.746Z,98548.41
2023-01-19T01:59:03.362Z,98547.16
2023-01-19T02:00:10.168Z,98556.78
2023-01-19T02:01:32.499Z,98554.91
2023-01-19T02:02:52.212Z,98544.28
2023-01-19T02:03:56.205Z,98549.34
2023-01-19T02:05:16.451Z,98551.72
2023-01-19T02:06:21.852Z,98549.16
2023-01-19T02:07:52.149Z,98552.19
2023-01-19T02:09:22.411Z,98542.84
2023-01-19T02:10:43.747Z,98541.72
2023-01-19T02:12:06.018Z,98543.13
2023-01-19T02:13:18.768Z,98557.97
2023-01-19T02:14:21.760Z,98563.53
2023-01-19T02:15:24.513Z,98561.50
2023-01-19T02:16:27.439Z,98562.19
2023-01-19T02:17:30.122Z,98558.38
2023-01-19T02:18:33.704Z,98561.44
2023-01-19T02:19:42.251Z,98557.13
2023-01-19T02:21:13.200Z,98550.13
2023-01-19T02:22:38.804Z,98540.31
2023-01-19T02:23:47.542Z,98542.34
2023-01-19T02:24:54.203Z,98533.44
2023-01-19T02:25:56.921Z,98530.38
2023-01-19T02:27:00.385Z,98535.28
2023-01-19T02:28:03.746Z,98527.22
2023-01-19T02:29:12.259Z,98523.75
2023-01-19T02:30:16.935Z,98519.38
2023-01-19T02:31:20.288Z,98521.75
2023-01-19T02:32:22.915Z,98511.00
2023-01-19T02:33:25.710Z,98513.94
2023-01-19T02:34:28.905Z,98519.38
2023-01-19T02:35:35.818Z,98524.03
2023-01-19T02:36:56.183Z,98540.84
2023-01-19T02:37:59.375Z,98535.06
2023-01-19T02:39:03.716Z,98519.38
2023-01-19T02:40:12.784Z,98529.91
2023-01-19T02:41:21.672Z,98514.16
2023-01-19T02:42:37.362Z,98513.03
2023-01-19T02:43:42.038Z,98508.91
2023-01-19T02:44:48.550Z,98514.47
2023-01-19T02:45:51.646Z,98526.56
2023-01-19T02:46:55.149Z,98525.78
2023-01-19T02:47:57.821Z,98529.91
2023-01-19T02:49:01.910Z,98530.63
2023-01-19T02:50:04.839Z,98528.41
2023-01-19T02:51:25.446Z,98525.72
2023-01-19T02:52:28.474Z,98518.19
2023-01-19T02:53:33.769Z,98517.69
2023-01-19T02:54:47.093Z,98526.28
2023-01-19T02:55:57.478Z,98522.50
2023-01-19T02:57:39.447Z,98529.25
2023-01-19T02:58:58.385Z,98534.81
2023-01-19T03:00:22.254Z,98536.94
2023-01-19T03:02:02.298Z,98557.19
2023-01-19T03:03:30.899Z,98553.91
2023-01-19T03:04:58.271Z,98555.47
2023-01-19T03:06:18.522Z,98556.88
2023-01-19T03:07:32.091Z,98552.28
2023-01-19T03:09:04.740Z,98545.00
2023-01-19T03:10:13.216Z,98544.19
2023-01-19T03:11:16.640Z,98541.28
2023-01-19T03:12:36.352Z,98537.25
2023-01-19T03:13:50.836Z,98551.44
2023-01-19T03:14:58.767Z,98546.53
2023-01-19T03:16:45.107Z,98535.94
2023-01-19T03:17:50.061Z,98531.03
2023-01-19T03:18:56.987Z,98528.50
2023-01-19T03:20:00.411Z,98528.66
2023-01-19T03:21:06.660Z,98527.13
2023-01-19T03:22:13.617Z,98520.34
2023-01-19T03:23:37.300Z,98518.44
2023-01-19T03:24:48.226Z,98513.28
2023-01-19T03:25:53.337Z,98506.47
2023-01-19T03:27:01.636Z,98503.41
2023-01-19T03:28:05.083Z,98507.56
2023-01-19T03:29:09.483Z,98491.22
2023-01-19T03:30:18.800Z,98500.19
2023-01-19T03:31:24.683Z,98498.69
2023-01-19T03:32:36.570Z,98495.28
2023-01-19T03:33:44.517Z,98502.81
2023-01-19T03:34:48.522Z,98512.69
2023-01-19T03:35:57.819Z,98528.19
2023-01-19T03:37:04.175Z,98519.13
2023-01-19T03:38:15.329Z,98527.78
2023-01-19T03:39:23.840Z,98521.91
2023-01-19T03:40:32.322Z,98513.03
2023-01-19T03:41:37.901Z,98524.59
2023-01-19T03:42:41.504Z,98521.97
2023-01-19T03:43:45.258Z,98522.81
2023-01-19T03:44:50.854Z,98520.53
2023-01-19T03:45:55.294Z,98518.81
2023-01-19T03:46:59.287Z,98525.09
2023-01-19T03:48:02.315Z,98519.91
2023-01-19T03:49:05.208Z,98516.41
2023-01-19T03:50:15.380Z,98511.25
2023-01-19T03:51:19.652Z,98514.53
2023-01-19T03:52:30.439Z,98522.38
2023-01-19T03:53:32.879Z,98517.59
2023-01-19T03:54:35.552Z,98519.09
2023-01-19T03:55:40.781Z,98507.03
2023-01-19T03:56:44.831Z,98511.50
2023-01-19T03:57:49.547Z,98510.13
2023-01-19T03:58:52.497Z,98513.44
2023-01-19T03:59:56.093Z,98514.63
2023-01-19T04:00:58.703Z,98524.25
2023-01-19T04:02:01.453Z,98529.56
2023-01-19T04:03:05.526Z,98529.91
2023-01-19T04:04:08.592Z,98529.03
2023-01-19T04:05:11.299Z,98528.34
2023-01-19T04:06:14.224Z,98528.34
2023-01-19T04:07:17.074Z,98517.13
2023-01-19T04:08:19.767Z,98514.16
2023-01-19T04:09:22.932Z,98511.59
2023-01-19T04:10:25.594Z,98515.59
2023-01-19T04:11:28.716Z,98510.56
2023-01-19T04:12:31.292Z,98510.81
2023-01-19T04:13:34.196Z,98500.94
2023-01-19T04:14:39.292Z,98493.88
2023-01-19T04:15:42.150Z,98484.44
2023-01-19T04:16:48.444Z,98494.50
2023-01-19T04:17:51.040Z,98492.31
2023-01-19T04:18:53.736Z,98490.34
2023-01-19T04:19:56.206Z,98481.91
2023-01-19T04:21:02.378Z,98465.34
2023-01-19T04:22:09.114Z,98458.78
2023-01-19T04:23:11.886Z,98448.91
2023-01-19T04:24:14.300Z,98456.41
2023-01-19T04:25:16.937Z,98458.34
2023-01-19T04:26:19.952Z,98461.38
2023-01-19T04:27:22.642Z,98470.31
2023-01-19T04:28:26.255Z,98462.00
2023-01-19T04:29:28.754Z,98462.69
2023-01-19T04:30:31.875Z,98473.78
2023-01-19T04:31:35.909Z,98471.94
2023-01-19T04:32:38.550Z,98466.41
2023-01-19T04:33:41.220Z,98470.13
2023-01-19T04:34:44.163Z,98469.44
2023-01-19T04:35:47.831Z,98475.50
2023-01-19T04:36:51.772Z,98486.25
2023-01-19T04:37:54.844Z,98488.03
2023-01-19T04:38:57.448Z,98480.94
2023-01-19T04:40:00.038Z,98491.16
2023-01-19T04:41:02.677Z,98485.13
2023-01-19T04:42:06.582Z,98485.06
2023-01-19T04:43:10.037Z,98493.25
2023-01-19T04:44:14.936Z,98507.41
2023-01-19T04:45:17.667Z,98505.56
2023-01-19T04:46:20.290Z,98508.59
2023-01-19T04:47:23.001Z,98507.50
2023-01-19T04:48:25.748Z,98503.06
2023-01-19T04:49:28.429Z,98513.06
2023-01-19T04:50:32.528Z,98508.19
2023-01-19T04:51:35.809Z,98510.16
2023-01-19T04:52:38.998Z,98498.50
2023-01-19T04:53:41.546Z,98492.88
2023-01-19T04:54:44.204Z,98491.38
2023-01-19T04:55:46.990Z,98483.91
2023-01-19T04:56:50.053Z,98490.94
2023-01-19T04:57:52.506Z,98491.38
2023-01-19T04:58:55.047Z,98497.72
2023-01-19T04:59:58.491Z,98488.78
2023-01-19T05:01:01.034Z,98482.88
2023-01-19T05:02:03.906Z,98489.50
2023-01-19T05:03:06.596Z,98486.13
2023-01-19T05:04:09.363Z,98490.31
2023-01-19T05:05:12.337Z,98491.03
2023-01-19T05:06:15.061Z,98482.75
2023-01-19T05:07:17.892Z,98478.94
2023-01-19T05:08:20.649Z,98481.56
2023-01-19T05:09:23.055Z,98480.38
2023-01-19T05:10:25.692Z,98485.38
2023-01-19T05:11:28.151Z,98486.81
2023-01-19T05:12:30.782Z,98488.31
2023-01-19T05:13:33.789Z,98488.03
2023-01-19T05:14:41.823Z,98486.88
2023-01-19T05:15:45.409Z,98490.63
2023-01-19T05:16:47.922Z,98490.47
2023-01-19T05:17:50.606Z,98503.03
2023-01-19T05:18:53.221Z,98505.34
2023-01-19T05:19:55.803Z,98510.25
2023-01-19T05:20:58.583Z,98513.53
2023-01-19T05:22:05.644Z,98517.25
2023-01-19T05:23:09.482Z,98510.03
2023-01-19T05:24:12.240Z,98498.00
2023-01-19T05:25:14.959Z,98497.06
2023-01-19T05:26:19.913Z,98495.88
2023-01-19T05:27:22.676Z,98497.81
2023-01-19T05:28:25.120Z,98509.41
2023-01-19T05:29:30.313Z,98501.13
2023-01-19T05:30:32.789Z,98501.06
2023-01-19T05:31:36.267Z,98501.50
2023-01-19T05:32:38.963Z,98503.41
2023-01-19T05:33:41.508Z,98504.47
2023-01-19T05:34:44.148Z,98507.06
2023-01-19T05:35:53.125Z,98499.88
2023-01-19T05:36:58.295Z,98496.66
2023-01-19T05:38:01.111Z,98503.84
2023-01-19T05:39:04.204Z,98499.25
2023-01-19T05:40:07.422Z,98502.28
2023-01-19T05:41:10.053Z,98495.63
2023-01-19T05:42:12.627Z,98499.06
2023-01-19T05:43:15.765Z,98497.16
2023-01-19T05:44:18.462Z,98488.59
2023-01-19T05:45:23.871Z,98488.13
2023-01-19T05:46:29.430Z,98483.22
2023-01-19T05:47:32.895Z,98485.97
2023-01-19T05:48:35.320Z,98480.41
2023-01-19T05:49:37.948Z,98482.19
2023-01-19T05:50:40.445Z,98476.47
2023-01-19T05:51:45.566Z,98482.53
2023-01-19T05:52:53.467Z,98473.09
2023-01-19T05:53:56.371Z,98475.38
2023-01-19T05:54:58.794Z,98480.25
2023-01-19T05:56:06.498Z,98478.81
2023-01-19T05:57:09.120Z,98488.19
2023-01-19T05:58:11.582Z,98488.88
2023-01-19T05:59:17.841Z,98483.28
2023-01-19T06:00:20.695Z,98485.56
2023-01-19T06:01:30.517Z,98484.34
2023-01-19T06:02:46.758Z,98480.41
2023-01-19T06:03:49.267Z,98495.44
2023-01-19T06:04:52.072Z,98487.22
2023-01-19T06:05:58.044Z,98495.94
2023-01-19T06:07:00.855Z,98503.34
2023-01-19T06:08:03.301Z,98504.59
2023-01-19T06:09:05.757Z,98508.25
2023-01-19T06:10:09.323Z,98505.19
2023-01-19T06:11:12.727Z,98511.91
2023-01-19T06:12:15.234Z,98511.91
2023-01-19T06:13:18.622Z,98511.84
2023-01-19T06:14:21.213Z,98519.75
2023-01-19T06:15:23.810Z,98520.50
2023-01-19T06:16:26.475Z,98519.34
2023-01-19T06:17:29.163Z,98520.91
2023-01-19T06:18:32.120Z,98526.44
2023-01-19T06:19:35.228Z,98526.81
2023-01-19T06:20:40.359Z,98526.81
2023-01-19T06:21:43.531Z,98521.97
2023-01-19T06:22:46.244Z,98517.84
2023-01-19T06:23:48.731Z,98518.28
2023-01-19T06:24:51.329Z,98521.00
2023-01-19T06:25:53.928Z,98521.84
2023-01-19T06:26:56.549Z,98527.00
2023-01-19T06:27:59.237Z,98519.50
2023-01-19T06:29:04.104Z,98523.63
2023-01-19T06:30:07.342Z,98520.31
2023-01-19T06:31:10.250Z,98525.16
2023-01-19T06:32:13.719Z,98523.41
2023-01-19T06:33:17.301Z,98513.28
2023-01-19T06:34:20.281Z,98512.44
2023-01-19T06:35:22.796Z,98506.81
2023-01-19T06:36:25.314Z,98502.75
2023-01-19T06:37:30.724Z,98504.25
2023-01-19T06:38:33.378Z,98509.09
2023-01-19T06:39:38.006Z,98503.59
2023-01-19T06:40:41.683Z,98506.59
2023-01-19T06:41:44.242Z,98512.59
2023-01-19T06:42:46.822Z,98512.72
2023-01-19T06:43:58.204Z,98521.50
2023-01-19T06:45:10.389Z,98513.22
2023-01-19T06:47:15.011Z,98516.69
2023-01-19T06:49:07.350Z,98521.09
2023-01-19T06:50:33.172Z,98519.41
2023-01-19T06:52:06.065Z,98519.91
2023-01-19T06:53:44.389Z,98518.59
2023-01-19T06:56:28.364Z,98532.19
2023-01-19T06:57:53.330Z,98515.53
2023-01-19T06:59:22.932Z,98527.69
2023-01-19T07:01:13.276Z,98518.94
2023-01-19T07:11:34.899Z,98535.97
2023-01-19T07:18:24.886Z,98541.69
2023-01-19T07:24:36.717Z,98550.38
2023-01-19T07:28:38.707Z,98554.78
2023-01-19T07:32:15.055Z,98565.69
2023-01-19T07:44:33.179Z,98557.81
2023-01-19T07:46:01.704Z,98556.03
2023-01-19T07:47:34.421Z,98550.31
2023-01-19T07:49:03.803Z,98560.44
2023-01-19T07:50:47.440Z,98560.09
2023-01-19T08:00:07.089Z,98556.50
2023-01-19T08:03:37.699Z,98561.81
2023-01-19T08:16:15.037Z,98551.44
2023-01-19T08:19:22.091Z,98565.81
2023-01-19T08:21:20.631Z,98572.16
2023-01-19T08:29:07.290Z,98581.53
2023-01-19T08:33:24.343Z,98567.41
2023-01-19T08:42:38.260Z,98585.53
2023-01-19T08:44:05.955Z,98582.16
2023-01-19T08:46:38.192Z,98580.22
2023-01-19T08:48:39.923Z,98585.19
2023-01-19T08:50:46.361Z,98581.88
2023-01-19T08:53:13.325Z,98585.59
2023-01-19T08:54:24.736Z,98596.44
2023-01-19T08:59:43.361Z,98610.53
2023-01-19T09:01:00.420Z,98601.94
2023-01-19T09:02:29.804Z,98595.16
2023-01-19T09:03:49.945Z,98591.09
2023-01-19T09:05:07.229Z,98584.69
2023-01-19T09:06:11.389Z,98587.00
2023-01-19T09:07:14.345Z,98589.69
2023-01-19T09:08:22.632Z,98588.16
2023-01-19T09:09:29.314Z,98580.28
2023-01-19T09:10:49.281Z,98587.38
2023-01-19T09:11:55.930Z,98592.03
2023-01-19T09:13:08.879Z,98601.91
2023-01-19T09:14:39.574Z,98594.81
2023-01-19T09:15:44.913Z,98598.25
2023-01-19T09:17:09.522Z,98600.34
2023-01-19T09:18:24.388Z,98587.56
2023-01-19T09:20:04.243Z,98589.41
2023-01-19T09:21:18.503Z,98589.84
2023-01-19T09:22:48.372Z,98590.91
2023-01-19T09:24:06.566Z,98590.66
2023-01-19T09:27:40.610Z,98599.50
2023-01-19T09:31:02.877Z,98605.44
2023-01-19T09:32:35.145Z,98597.50
2023-01-19T09:34:18.350Z,98599.06
2023-01-19T09:35:45.298Z,98595.72
2023-01-19T09:37:05.472Z,98602.41
2023-01-19T09:38:42.816Z,98609.09
2023-01-19T09:39:54.117Z,98604.88
2023-01-19T09:41:14.364Z,98598.34
2023-01-19T09:42:50.347Z,98601.31
2023-01-19T09:44:17.853Z,98589.75
2023-01-19T09:45:49.252Z,98593.53
2023-01-19T09:46:54.723Z,98585.84
2023-01-19T09:48:27.135Z,98582.72
2023-01-19T09:49:39.955Z,98588.94
2023-01-19T09:50:48.782Z,98587.41
2023-01-19T09:52:12.763Z,98598.41
2023-01-19T09:53:29.897Z,98600.31
2023-01-19T09:55:01.140Z,98600.25
2023-01-19T09:56:04.037Z,98603.81
2023-01-19T09:57:25.119Z,98590.88
2023-01-19T09:58:32.303Z,98598.72
2023-01-19T09:59:37.394Z,98602.19
2023-01-19T10:00:50.382Z,98600.78
2023-01-19T10:02:30.889Z,98610.09
2023-01-19T10:03:41.778Z,98612.03
2023-01-19T10:04:58.464Z,98625.06
2023-01-19T10:06:17.745Z,98616.00
2023-01-19T10:07:54.825Z,98615.28
2023-01-19T10:09:33.249Z,98605.38
2023-01-19T10:11:03.074Z,98604.25
2023-01-19T10:12:22.624Z,98603.13
2023-01-19T10:13:50.274Z,98603.13
2023-01-19T10:15:25.459Z,98605.38
2023-01-19T10:16:50.007Z,98601.31
2023-01-19T10:18:17.504Z,98604.97
2023-01-19T10:19:44.613Z,98597.25
2023-01-19T10:21:23.072Z,98597.34
2023-01-19T10:22:29.234Z,98598.13
2023-01-19T10:23:48.446Z,98594.22
2023-01-19T10:25:02.470Z,98603.19
2023-01-19T10:26:40.261Z,98599.34
2023-01-19T10:27:46.652Z,98600.44
2023-01-19T10:29:01.155Z,98595.47
2023-01-19T10:30:20.595Z,98594.09
2023-01-19T10:31:28.350Z,98595.19
2023-01-19T10:32:36.846Z,98589.53
2023-01-19T10:33:42.334Z,98594.09
2023-01-19T10:34:55.279Z,98597.03
2023-01-19T10:36:04.970Z,98588.56
2023-01-19T10:37:20.624Z,98587.34
2023-01-19T10:38:34.100Z,98584.06
2023-01-19T10:39:47.646Z,98573.28
2023-01-19T10:41:04.850Z,98578.19
2023-01-19T10:42:24.923Z,98588.47
2023-01-19T10:43:37.747Z,98593.03
2023-01-19T10:44:52.677Z,98590.88
2023-01-19T10:45:57.998Z,98595.22
2023-01-19T10:47:07.137Z,98595.47
2023-01-19T10:48:19.864Z,98602.53
2023-01-19T10:49:43.528Z,98601.13
2023-01-19T10:50:46.663Z,98586.28
2023-01-19T10:51:52.872Z,98596.81
2023-01-19T10:53:12.601Z,98603.31
2023-01-19T10:54:17.448Z,98602.94
2023-01-19T10:55:26.559Z,98599.69
2023-01-19T10:56:38.892Z,98603.50
2023-01-19T10:57:46.408Z,98600.25
2023-01-19T10:59:00.718Z,98601.31
2023-01-19T11:00:31.872Z,98595.91
2023-01-19T11:01:39.626Z,98600.47
2023-01-19T11:04:59.278Z,98593.91
2023-01-19T11:06:17.796Z,98598.41
2023-01-19T11:07:22.096Z,98594.59
2023-01-19T11:08:33.445Z,98596.88
2023-01-19T11:09:38.789Z,98598.41
2023-01-19T11:10:42.149Z,98589.22
2023-01-19T11:11:57.689Z,98592.34
2023-01-19T11:13:23.351Z,98592.94
2023-01-19T11:14:42.547Z,98599.78
2023-01-19T11:15:51.609Z,98603.50
2023-01-19T11:17:28.974Z,98597.91
2023-01-19T11:19:39.777Z,98602.97
2023-01-19T11:21:03.563Z,98610.00
2023-01-19T11:22:30.916Z,98606.63
2023-01-19T11:24:15.360Z,98613.81
2023-01-19T11:25:48.248Z,98613.63
2023-01-19T11:27:18.688Z,98604.25
2023-01-19T11:28:39.302Z,98594.97
2023-01-19T11:30:21.077Z,98599.59
2023-01-19T11:31:36.689Z,98600.22
2023-01-19T11:32:39.371Z,98601.50
2023-01-19T11:33:49.791Z,98607.31
2023-01-19T11:34:53.643Z,98611.31
2023-01-19T11:36:05.208Z,98602.63
2023-01-19T11:37:16.941Z,98608.00
2023-01-19T11:38:23.705Z,98603.50
2023-01-19T11:39:30.109Z,98608.28
2023-01-19T11:40:36.627Z,98612.00
2023-01-19T11:41:50.779Z,98616.22
2023-01-19T11:42:53.534Z,98615.59
2023-01-19T11:44:00.433Z,98617.13
2023-01-19T11:45:15.557Z,98617.13
2023-01-19T11:46:19.352Z,98623.81
2023-01-19T11:47:43.716Z,98617.13
2023-01-19T11:49:02.946Z,98626.28
2023-01-19T11:50:29.852Z,98626.13
2023-01-19T11:51:42.737Z,98630.47
2023-01-19T11:52:54.787Z,98625.22
2023-01-19T11:54:06.160Z,98628.88
2023-01-19T11:55:22.825Z,98629.38
2023-01-19T11:56:29.238Z,98632.28
2023-01-19T11:57:34.635Z,98625.94
2023-01-19T11:58:50.267Z,98630.69
2023-01-19T11:59:55.650Z,98632.38
2023-01-19T12:01:07.424Z,98635.94
2023-01-19T12:02:42.986Z,98639.50
2023-01-19T12:03:59.986Z,98638.72
2023-01-19T12:05:07.743Z,98645.47
2023-01-19T12:06:34.784Z,98643.97
2023-01-19T12:07:38.881Z,98651.47
2023-01-19T12:08:44.584Z,98651.81
2023-01-19T12:09:51.866Z,98651.41
2023-01-19T12:10:57.737Z,98644.00
2023-01-19T12:12:06.793Z,98644.97
2023-01-19T12:13:28.147Z,98649.59
2023-01-19T12:14:51.725Z,98648.25
2023-01-19T12:16:05.367Z,98652.81
2023-01-19T12:17:21.863Z,98651.81
2023-01-19T12:18:36.627Z,98658.16
2023-01-19T12:20:15.370Z,98666.03
2023-01-19T12:21:21.447Z,98660.78
2023-01-19T12:22:24.571Z,98666.69
2023-01-19T12:23:41.805Z,98661.38
2023-01-19T12:25:01.975Z,98671.69
2023-01-19T12:26:16.679Z,98666.53
2023-01-19T12:27:32.415Z,98665.75
2023-01-19T12:28:40.750Z,98669.47
2023-01-19T12:29:44.529Z,98665.81
2023-01-19T12:30:47.691Z,98666.78
2023-01-19T12:32:14.734Z,98676.22
2023-01-19T12:33:35.391Z,98666.53
2023-01-19T12:34:48.906Z,98676.81
2023-01-19T12:36:04.392Z,98675.13
2023-01-19T12:37:36.411Z,98668.97
2023-01-19T12:38:50.519Z,98668.97
2023-01-19T12:40:05.769Z,98678.78
2023-01-19T12:41:32.881Z,98676.81
2023-01-19T12:42:35.700Z,98683.41
2023-01-19T12:43:38.351Z,98680.72
2023-01-19T12:44:42.559Z,98683.25
2023-01-19T12:45:48.357Z,98680.22
2023-01-19T12:46:58.771Z,98689.25
2023-01-19T12:48:02.883Z,98679.28
2023-01-19T12:49:39.235Z,98683.16
2023-01-19T12:50:47.509Z,98683.59
2023-01-19T12:51:52.756Z,98685.69
2023-01-19T12:53:03.164Z,98682.50
2023-01-19T12:54:08.538Z,98693.72
2023-01-19T12:55:13.467Z,98701.25
2023-01-19T12:56:18.236Z,98688.47
2023-01-19T12:57:27.326Z,98682.50
2023-01-19T12:58:30.059Z,98699.66
2023-01-19T12:59:36.196Z,98704.56
2023-01-19T13:00:43.423Z,98700.91
2023-01-19T13:02:27.012Z,98696.34
2023-01-19T13:03:32.304Z,98707.75
2023-01-19T13:04:38.014Z,98705.19
2023-01-19T13:05:41.451Z,98704.09
2023-01-19T13:06:50.102Z,98706.19
2023-01-19T13:08:07.516Z,98709.19
2023-01-19T13:09:31.079Z,98701.25
2023-01-19T13:10:53.677Z,98704.34
2023-01-19T13:12:36.139Z,98694.81
2023-01-19T13:13:49.675Z,98693.56
2023-01-19T13:15:32.456Z,98687.63
2023-01-19T13:16:38.154Z,98693.22
2023-01-19T13:17:53.981Z,98689.91
2023-01-19T13:19:19.016Z,98680.78
2023-01-19T13:20:31.770Z,98682.84
2023-01-19T13:21:43.617Z,98693.72
2023-01-19T13:22:49.933Z,98695.31
2023-01-19T13:23:58.988Z,98699.03
2023-01-19T13:25:14.183Z,98698.69
2023-01-19T13:26:23.591Z,98700.13
2023-01-19T13:27:30.750Z,98704.44
2023-01-19T13:28:41.961Z,98703.94
2023-01-19T13:29:45.712Z,98705.13
2023-01-19T13:30:58.372Z,98697.44
2023-01-19T13:32:24.063Z,98693.38
2023-01-19T13:33:43.352Z,98692.63
2023-01-19T13:34:53.586Z,98696.09
2023-01-19T13:35:59.151Z,98707.06
2023-01-19T13:37:09.791Z,98706.88
2023-01-19T13:38:25.062Z,98709.91
2023-01-19T13:39:37.296Z,98707.91
2023-01-19T13:40:43.289Z,98714.59
2023-01-19T13:41:47.071Z,98711.03
2023-01-19T13:42:52.007Z,98724.19
2023-01-19T14:00:59.861Z,98707.97
2023-01-19T14:02:18.426Z,98706.06
2023-01-19T14:03:33.308Z,98714.59
2023-01-19T14:19:04.844Z,98724.53
2023-01-19T14:20:50.383Z,98731.09
2023-01-19T15:15:40.011Z,98817.44
2023-01-19T15:40:21.842Z,98876.59
2023-01-19T15:44:31.431Z,98877.25
2023-01-19T15:46:16.509Z,98884.28
2023-01-19T15:48:52.559Z,98879.94
2023-01-19T15:56:09.947Z,98906.91
2023-01-19T15:56:56.895Z,98906.13
2023-01-19T15:58:13.941Z,98909.44
2023-01-19T15:59:28.951Z,98906.50
2023-01-19T16:00:43.261Z,98913.72
2023-01-19T16:02:16.224Z,98910.75
2023-01-19T16:03:24.744Z,98922.63
2023-01-19T16:06:05.808Z,98923.63
2023-01-19T16:07:09.630Z,98929.00
2023-01-19T16:08:15.758Z,98929.69
2023-01-19T16:09:42.048Z,98928.50
2023-01-19T16:11:33.284Z,98940.16
2023-01-19T16:12:36.569Z,98939.97
2023-01-19T16:15:35.052Z,98944.59
2023-01-19T16:16:53.234Z,98939.50
2023-01-19T16:18:08.654Z,98948.25
2023-01-19T16:19:23.966Z,98955.13
2023-01-19T16:22:17.134Z,98960.53
2023-01-19T18:11:09.770Z,99258.88
2023-01-19T18:42:35.055Z,99297.13
2023-01-19T18:43:40.694Z,99292.44
2023-01-19T18:44:44.879Z,99281.50
2023-01-19T18:45:49.760Z,99278.84
2023-01-19T18:46:55.951Z,99289.16
2023-01-19T18:48:04.817Z,99298.06
2023-01-19T18:49:10.516Z,99289.81
2023-01-19T18:50:24.514Z,99282.13
2023-01-19T18:51:38.686Z,99292.13
2023-01-19T18:52:44.228Z,99300.13
2023-01-19T18:53:48.839Z,99305.53
2023-01-19T18:54:54.137Z,99302.59
2023-01-19T18:56:05.032Z,99297.53
2023-01-19T18:57:13.078Z,99287.84
2023-01-19T18:58:20.354Z,99286.28
2023-01-19T18:59:24.829Z,99284.16
2023-01-19T19:00:30.094Z,99289.84
2023-01-19T19:01:38.036Z,99287.13
2023-01-19T19:02:42.628Z,99278.50
2023-01-19T19:03:47.445Z,99272.66
2023-01-19T19:04:55.836Z,99273.69
2023-01-19T19:06:04.228Z,99281.06
2023-01-19T19:07:09.324Z,99272.94
2023-01-19T19:08:13.380Z,99282.22
2023-01-19T19:09:18.896Z,99280.31
2023-01-19T19:10:24.220Z,99285.38
2023-01-19T19:11:29.256Z,99278.63
2023-01-19T19:14:05.295Z,99295.56
2023-01-19T19:15:11.724Z,99306.47
2023-01-19T19:16:16.293Z,99303.72
2023-01-19T19:17:21.578Z,99309.84
2023-01-19T19:18:28.180Z,99306.78
2023-01-19T19:19:34.572Z,99304.19
2023-01-19T19:20:46.131Z,99315.25
2023-01-19T19:21:53.335Z,99318.28
2023-01-19T19:23:02.275Z,99322.00
2023-01-19T19:24:25.353Z,99334.56
2023-01-19T19:25:41.220Z,99336.56
2023-01-19T19:27:21.827Z,99342.88
2023-01-19T19:31:18.252Z,99349.19
2023-01-19T19:34:16.045Z,99336.72
2023-01-19T19:38:11.163Z,99353.81
2023-01-19T19:39:15.672Z,99371.47
2023-01-19T19:41:23.479Z,99369.91
2023-01-19T19:44:39.050Z,99370.81
2023-01-19T19:51:04.004Z,99376.69
2023-01-19T20:00:38.125Z,99390.50
2023-01-19T20:02:17.546Z,99396.78
2023-01-19T20:03:39.763Z,99403.53
2023-01-19T20:05:05.152Z,99404.47
2023-01-19T20:06:30.252Z,99410.16
2023-01-19T20:07:36.175Z,99405.38
2023-01-19T20:08:44.743Z,99409.84
2023-01-19T20:09:52.050Z,99405.72
2023-01-19T20:11:03.306Z,99397.88